Time;durP1;ratioP1;P1;durP2;ratioP2;P2;SDS_P1;SDS_P2;PMS_P1;PMS_P2;Temp;Humidity;BMP_temperature;BMP_pressure;BME280_temperature;BME280_humidity;BME280_pressure;Samples;Min_cycle;Max_cycle;Signal;HPM_P1;HPM_P2
2022/03/20 00:02:03;;;;;;;11.90;6.15;;;5.30;99.90;;;;;;5105935;27;20039;-78
2022/03/20 00:04:29;;;;;;;13.43;6.60;;;5.30;99.90;;;;;;5122897;27;20402;-78
2022/03/20 00:06:55;;;;;;;13.15;6.65;;;5.30;99.90;;;;;;5104782;27;20043;-78
2022/03/20 00:09:21;;;;;;;13.13;6.03;;;5.20;99.90;;;;;;5105758;27;20039;-78
2022/03/20 00:11:47;;;;;;;13.90;6.57;;;5.20;99.90;;;;;;5124367;27;20039;-78
2022/03/20 00:14:12;;;;;;;13.02;6.75;;;5.10;99.90;;;;;;5101868;28;20055;-78
2022/03/20 00:16:38;;;;;;;14.40;7.13;;;5.40;99.90;;;;;;5126900;27;20098;-78
2022/03/20 00:19:05;;;;;;;13.20;6.93;;;5.20;99.90;;;;;;5129514;27;20497;-78
2022/03/20 00:21:32;;;;;;;14.88;7.25;;;5.20;99.90;;;;;;5090587;28;20043;-78
2022/03/20 00:23:57;;;;;;;11.38;6.70;;;5.20;99.90;;;;;;5091696;28;20227;-78
2022/03/20 00:26:23;;;;;;;12.25;6.93;;;5.20;99.90;;;;;;5090677;27;20122;-78
2022/03/20 00:28:49;;;;;;;12.65;6.93;;;5.10;99.90;;;;;;5113084;28;20063;-78
2022/03/20 00:31:15;;;;;;;12.20;7.10;;;5.20;99.90;;;;;;5115426;27;20032;-78
2022/03/20 00:33:40;;;;;;;13.13;7.20;;;5.10;99.90;;;;;;5107252;27;20028;-78
2022/03/20 00:36:06;;;;;;;12.65;7.25;;;5.00;99.90;;;;;;5103065;27;20118;-78
2022/03/20 00:38:32;;;;;;;12.30;6.95;;;5.00;99.90;;;;;;5107231;28;20032;-78
2022/03/20 00:40:58;;;;;;;11.75;7.22;;;5.00;99.90;;;;;;5099855;27;20112;-78
2022/03/20 00:43:24;;;;;;;13.15;7.70;;;5.00;99.90;;;;;;5103000;27;20038;-78
2022/03/20 00:45:49;;;;;;;12.35;7.43;;;5.00;99.90;;;;;;5116041;28;20501;-78
2022/03/20 00:48:15;;;;;;;15.73;7.97;;;5.00;99.90;;;;;;5118277;28;20063;-78
2022/03/20 00:50:41;;;;;;;13.25;7.90;;;5.00;99.90;;;;;;5107347;28;20028;-78
2022/03/20 00:53:07;;;;;;;14.25;7.70;;;4.80;99.90;;;;;;5116002;28;20036;-78
2022/03/20 00:55:33;;;;;;;13.95;8.40;;;4.80;99.90;;;;;;5118092;27;20032;-78
2022/03/20 00:57:58;;;;;;;15.27;8.98;;;4.80;99.90;;;;;;5117916;28;20099;-78
2022/03/20 01:00:25;;;;;;;15.63;8.50;;;4.70;99.90;;;;;;5108990;27;20123;-78
2022/03/20 01:02:50;;;;;;;14.52;8.40;;;4.60;99.90;;;;;;5121521;27;21125;-78
2022/03/20 01:05:16;;;;;;;14.20;7.78;;;4.50;99.90;;;;;;5120864;27;20067;-78
2022/03/20 01:07:45;;;;;;;14.45;7.50;;;4.40;99.90;;;;;;5098366;28;20188;-78
2022/03/20 01:10:12;;;;;;;14.23;8.05;;;4.70;99.90;;;;;;5123937;27;20051;-78
2022/03/20 01:12:40;;;;;;;14.23;7.70;;;4.20;99.90;;;;;;5123727;27;20051;-78
2022/03/20 01:15:10;;;;;;;14.98;7.82;;;4.20;99.90;;;;;;5122704;27;20051;-78
2022/03/20 01:17:35;;;;;;;14.15;8.30;;;4.10;99.90;;;;;;5117629;28;20035;-78
2022/03/20 01:20:03;;;;;;;14.35;7.70;;;4.10;99.90;;;;;;5104675;28;20047;-78
2022/03/20 01:22:28;;;;;;;14.95;8.07;;;4.00;99.90;;;;;;5122707;27;20074;-78
2022/03/20 01:24:54;;;;;;;14.82;8.50;;;4.00;99.90;;;;;;5106742;28;20040;-78
2022/03/20 01:27:20;;;;;;;15.80;8.25;;;4.00;99.90;;;;;;5089729;28;20555;-78
2022/03/20 01:29:45;;;;;;;14.95;8.23;;;4.00;99.90;;;;;;5118038;28;20078;-78
2022/03/20 01:32:11;;;;;;;14.45;8.35;;;3.90;99.90;;;;;;5103972;28;20050;-78
2022/03/20 01:34:38;;;;;;;13.55;8.35;;;3.90;99.90;;;;;;5118754;27;20027;-78
2022/03/20 01:37:05;;;;;;;12.93;8.10;;;3.90;99.90;;;;;;5118922;27;20074;-78
2022/03/20 01:39:31;;;;;;;14.98;8.02;;;3.90;99.90;;;;;;5117677;28;20039;-78
2022/03/20 01:41:57;;;;;;;15.50;8.43;;;3.90;99.90;;;;;;5123618;27;20031;-78
2022/03/20 01:44:30;;;;;;;12.80;6.93;;;3.90;99.90;;;;;;5100698;27;20046;-78
2022/03/20 01:46:57;;;;;;;12.98;7.88;;;4.00;99.90;;;;;;5106251;27;20139;-78
2022/03/20 01:49:22;;;;;;;13.98;7.82;;;4.20;99.90;;;;;;5108127;27;20485;-78
2022/03/20 01:54:33;;;;;;;14.70;8.45;;;3.90;99.90;;;;;;5102919;27;20050;-78
2022/03/20 01:56:59;;;;;;;16.05;8.18;;;3.90;99.90;;;;;;5115477;27;20031;-78
2022/03/20 01:59:25;;;;;;;14.48;8.73;;;3.80;99.90;;;;;;5106639;27;20459;-78
2022/03/20 02:01:51;;;;;;;14.75;8.55;;;3.80;99.90;;;;;;5117555;27;20039;-78
2022/03/20 02:04:16;;;;;;;16.85;9.50;;;3.90;99.90;;;;;;5119586;27;20482;-78
2022/03/20 02:06:43;;;;;;;15.80;9.38;;;4.00;99.90;;;;;;5114218;28;20047;-78
2022/03/20 02:09:12;;;;;;;14.77;8.38;;;3.90;99.90;;;;;;5110336;28;20040;-78
2022/03/20 02:11:37;;;;;;;15.82;9.55;;;3.80;99.90;;;;;;5103896;27;20459;-78
2022/03/20 02:14:05;;;;;;;15.43;8.65;;;3.80;99.90;;;;;;5124514;27;20100;-78
2022/03/20 02:16:31;;;;;;;16.60;8.73;;;3.80;99.90;;;;;;5115972;28;20039;-78
2022/03/20 02:18:57;;;;;;;17.00;9.13;;;3.80;99.90;;;;;;5099186;27;20496;-78
2022/03/20 02:21:39;;;;;;;13.65;7.75;;;3.80;99.90;;;;;;5114932;28;20092;-78
2022/03/20 02:24:25;;;;;;;17.10;8.52;;;3.80;99.90;;;;;;5099994;28;20036;-78
2022/03/20 02:26:51;;;;;;;17.42;9.25;;;3.80;99.90;;;;;;5135273;27;20060;-78
2022/03/20 02:29:16;;;;;;;14.25;8.43;;;3.70;99.90;;;;;;5136942;27;20130;-78
2022/03/20 02:31:42;;;;;;;15.80;9.50;;;3.70;99.90;;;;;;5120026;27;20043;-78
2022/03/20 02:34:09;;;;;;;17.85;9.90;;;3.70;99.90;;;;;;5120249;27;20043;-78
2022/03/20 02:36:36;;;;;;;16.63;9.65;;;3.60;99.90;;;;;;5118519;27;20039;-78
2022/03/20 02:39:03;;;;;;;16.15;8.82;;;3.60;99.90;;;;;;5120589;27;20047;-78
2022/03/20 02:41:31;;;;;;;17.10;9.88;;;3.60;99.90;;;;;;5119559;27;20043;-78
2022/03/20 02:43:57;;;;;;;19.48;10.50;;;3.60;99.90;;;;;;5137150;27;20078;-78
2022/03/20 02:46:22;;;;;;;17.30;9.90;;;3.50;99.90;;;;;;5137113;27;20126;-78
2022/03/20 02:48:49;;;;;;;17.50;9.80;;;3.50;99.90;;;;;;5119506;27;20069;-78
2022/03/20 02:51:15;;;;;;;15.40;10.18;;;3.50;99.90;;;;;;5103141;27;20051;-78
2022/03/20 02:53:41;;;;;;;16.58;9.93;;;3.50;99.90;;;;;;5119985;27;20046;-78
2022/03/20 02:56:06;;;;;;;16.58;9.85;;;3.50;99.90;;;;;;5119840;27;20039;-78
2022/03/20 02:58:32;;;;;;;16.38;9.63;;;3.50;99.90;;;;;;5136868;27;20046;-78
2022/03/20 03:00:58;;;;;;;16.33;9.05;;;3.50;99.90;;;;;;5137468;27;20035;-78
2022/03/20 03:03:24;;;;;;;16.00;10.18;;;3.50;99.90;;;;;;5120651;27;20084;-78
2022/03/20 03:05:50;;;;;;;21.52;11.10;;;3.50;99.90;;;;;;5120003;27;20551;-78
2022/03/20 03:11:00;;;;;;;17.60;10.35;;;3.40;99.90;;;;;;5136962;27;20504;-78
2022/03/20 03:13:39;;;;;;;16.15;10.00;;;3.50;99.90;;;;;;5101040;27;20027;-78
2022/03/20 03:16:14;;;;;;;17.65;10.50;;;3.40;99.90;;;;;;5137358;27;20039;-78
2022/03/20 03:18:43;;;;;;;16.70;10.85;;;3.40;99.90;;;;;;5102721;27;20035;-78
2022/03/20 03:21:13;;;;;;;18.30;10.98;;;3.40;99.90;;;;;;5102869;27;20039;-78
2022/03/20 03:23:39;;;;;;;20.05;12.23;;;3.40;99.90;;;;;;5085306;27;20084;-78
2022/03/20 03:26:06;;;;;;;18.13;11.23;;;3.20;99.90;;;;;;5137424;27;20490;-78
2022/03/20 03:28:34;;;;;;;17.35;11.55;;;3.30;99.90;;;;;;5102045;27;20386;-78
2022/03/20 03:31:02;;;;;;;19.02;12.27;;;3.20;99.90;;;;;;5102414;28;20043;-78
2022/03/20 03:33:28;;;;;;;17.50;12.05;;;3.30;99.90;;;;;;5136806;27;20122;-78
2022/03/20 03:35:54;;;;;;;19.77;11.80;;;3.20;99.90;;;;;;5119808;27;20031;-78
2022/03/20 03:38:34;;;;;;;18.10;11.23;;;3.20;99.90;;;;;;5111454;27;20027;-78
2022/03/20 03:41:00;;;;;;;17.38;10.50;;;3.10;99.90;;;;;;5140457;27;20061;-78
2022/03/20 03:43:26;;;;;;;19.35;11.70;;;3.20;99.90;;;;;;5105799;27;20031;-78
2022/03/20 03:45:53;;;;;;;19.40;12.30;;;3.30;99.90;;;;;;5140021;27;20073;-78
2022/03/20 03:48:19;;;;;;;20.33;12.98;;;3.20;99.90;;;;;;5140055;27;20030;-78
2022/03/20 03:50:47;;;;;;;21.38;12.80;;;3.20;99.90;;;;;;5122686;27;20084;-78
2022/03/20 03:53:13;;;;;;;18.10;12.48;;;3.10;99.90;;;;;;5122110;27;20070;-78
2022/03/20 03:55:44;;;;;;;19.23;12.50;;;3.10;99.90;;;;;;5106278;27;20038;-78
2022/03/20 03:58:13;;;;;;;19.95;13.30;;;3.00;99.90;;;;;;5123489;27;20030;-78
2022/03/20 04:00:40;;;;;;;20.48;12.93;;;2.90;99.90;;;;;;5123132;27;20074;-78
2022/03/20 04:03:06;;;;;;;22.02;12.65;;;3.00;99.90;;;;;;5106123;27;20371;-78
2022/03/20 04:05:32;;;;;;;19.38;13.35;;;2.90;99.90;;;;;;5088829;27;20132;-78
2022/03/20 04:07:58;;;;;;;21.52;13.32;;;2.80;99.90;;;;;;5122406;27;20066;-78
2022/03/20 04:10:24;;;;;;;21.48;13.98;;;2.90;99.90;;;;;;5140007;27;20046;-78
2022/03/20 04:12:50;;;;;;;20.90;13.80;;;2.80;99.90;;;;;;5122248;27;20054;-78
2022/03/20 04:15:21;;;;;;;19.65;12.77;;;2.80;99.90;;;;;;5122824;27;20039;-78
2022/03/20 04:17:47;;;;;;;22.30;13.57;;;2.90;99.90;;;;;;5122825;27;20049;-78
2022/03/20 04:20:13;;;;;;;20.35;12.55;;;2.90;99.90;;;;;;5139843;27;20091;-78
2022/03/20 04:23:42;;;;;;;22.60;14.50;;;2.90;99.90;;;;;;5121657;27;20043;-78
2022/03/20 04:25:29;;;;;;;20.15;13.68;;;2.80;99.90;;;;;;5139706;27;20043;-78
2022/03/20 04:27:57;;;;;;;20.25;12.50;;;2.80;99.90;;;;;;5129512;28;20035;-78
2022/03/20 04:30:27;;;;;;;22.45;14.10;;;2.80;99.90;;;;;;5085705;28;20035;-78
2022/03/20 04:32:54;;;;;;;21.60;13.85;;;2.70;99.90;;;;;;5085661;28;20039;-78
2022/03/20 04:35:24;;;;;;;21.77;14.63;;;2.70;99.90;;;;;;5102577;28;20042;-78
2022/03/20 04:37:54;;;;;;;20.08;13.75;;;2.80;99.90;;;;;;5118573;28;20046;-78
2022/03/20 04:40:20;;;;;;;20.33;13.70;;;2.80;99.90;;;;;;5123073;27;20039;-78
2022/03/20 04:42:46;;;;;;;21.38;13.88;;;2.80;99.90;;;;;;5105767;27;20035;-78
2022/03/20 04:45:13;;;;;;;21.60;14.18;;;2.80;99.90;;;;;;5140122;27;20126;-78
2022/03/20 04:58:36;;;;;;;23.02;15.30;;;2.80;99.90;;;;;;5108694;27;20040;-78
2022/03/20 05:01:02;;;;;;;21.42;13.65;;;3.00;99.90;;;;;;5088510;27;20039;-78
2022/03/20 05:03:31;;;;;;;22.75;13.55;;;2.80;99.90;;;;;;5139292;27;20047;-78
2022/03/20 05:05:57;;;;;;;23.88;15.70;;;2.70;99.90;;;;;;5105398;27;20046;-78
2022/03/20 05:08:23;;;;;;;24.17;15.63;;;2.70;99.90;;;;;;5121241;27;20464;-78
2022/03/20 05:13:33;;;;;;;24.52;15.88;;;2.60;99.90;;;;;;5139407;27;20047;-78
2022/03/20 05:15:59;;;;;;;22.10;15.30;;;2.70;99.90;;;;;;5122097;27;20517;-78
2022/03/20 05:18:25;;;;;;;23.95;15.13;;;2.60;99.90;;;;;;5104978;27;20121;-78
2022/03/20 05:20:54;;;;;;;22.75;14.90;;;2.70;99.90;;;;;;5105372;27;20409;-78
2022/03/20 05:23:20;;;;;;;22.10;15.55;;;2.60;99.90;;;;;;5121127;27;20047;-78
2022/03/20 05:25:47;;;;;;;21.85;15.70;;;2.80;99.90;;;;;;5104750;27;20031;-78
2022/03/20 05:28:13;;;;;;;24.75;16.00;;;2.60;99.90;;;;;;5104420;27;20039;-78
2022/03/20 05:30:40;;;;;;;20.85;15.23;;;2.60;99.90;;;;;;5121996;27;20095;-78
2022/03/20 05:33:10;;;;;;;24.00;16.02;;;2.60;99.90;;;;;;5104669;27;20421;-78
2022/03/20 05:35:37;;;;;;;22.33;15.80;;;2.60;99.90;;;;;;5121553;27;20136;-78
2022/03/20 05:38:03;;;;;;;22.67;14.13;;;2.50;99.90;;;;;;5120758;27;20397;-78
2022/03/20 05:40:28;;;;;;;22.77;15.13;;;2.50;99.90;;;;;;5121686;27;20031;-78
2022/03/20 05:42:54;;;;;;;22.80;15.55;;;2.50;99.90;;;;;;5104271;27;20100;-78
2022/03/20 05:45:20;;;;;;;23.58;16.23;;;2.50;99.90;;;;;;5121459;27;20066;-78
2022/03/20 05:47:46;;;;;;;21.92;15.93;;;2.50;99.90;;;;;;5121909;27;20413;-78
2022/03/20 05:50:12;;;;;;;23.48;15.90;;;2.40;99.90;;;;;;5120963;27;20051;-78
2022/03/20 05:52:38;;;;;;;23.90;15.93;;;2.40;99.90;;;;;;5120361;27;20063;-78
2022/03/20 05:55:07;;;;;;;21.48;15.90;;;2.40;99.90;;;;;;5104272;27;20118;-78
2022/03/20 06:00:26;;;;;;;23.40;15.63;;;2.50;99.90;;;;;;5121018;27;20050;-78
2022/03/20 06:02:52;;;;;;;22.25;15.82;;;2.50;99.90;;;;;;5121677;27;20102;-78
2022/03/20 06:05:18;;;;;;;23.02;16.30;;;2.50;99.90;;;;;;5120976;27;20107;-78
2022/03/20 06:07:46;;;;;;;24.25;16.27;;;2.50;99.90;;;;;;5137266;27;20046;-78
2022/03/20 06:10:14;;;;;;;25.08;15.63;;;2.50;99.90;;;;;;5120938;27;20039;-78
2022/03/20 06:12:40;;;;;;;22.67;16.88;;;2.50;99.90;;;;;;5121113;27;20063;-78
2022/03/20 06:15:09;;;;;;;24.90;16.27;;;2.60;99.90;;;;;;5104075;27;20058;-78
2022/03/20 06:17:47;;;;;;;28.10;16.20;;;2.60;99.90;;;;;;5104364;27;20096;-78
2022/03/20 06:20:15;;;;;;;20.00;13.07;;;2.70;99.90;;;;;;5087366;27;20509;-78
2022/03/20 06:22:49;;;;;;;19.25;12.48;;;2.80;99.90;;;;;;5103279;27;20039;-78
2022/03/20 06:25:15;;;;;;;21.52;15.27;;;2.90;99.90;;;;;;5103023;27;20031;-78
2022/03/20 06:27:49;;;;;;;24.45;16.60;;;2.90;99.90;;;;;;5120449;27;20092;-78
2022/03/20 06:30:16;;;;;;;23.55;16.10;;;2.90;99.90;;;;;;5120683;27;20452;-78
2022/03/20 06:32:44;;;;;;;24.45;16.63;;;3.00;99.90;;;;;;5120365;27;20063;-78
2022/03/20 06:35:11;;;;;;;22.02;16.25;;;3.00;99.90;;;;;;5103501;27;20035;-78
2022/03/20 06:37:47;;;;;;;22.63;14.95;;;3.40;99.90;;;;;;5136786;27;20043;-78
2022/03/20 06:40:14;;;;;;;23.83;16.13;;;3.20;99.90;;;;;;5103740;27;20054;-78
2022/03/20 06:42:41;;;;;;;23.30;15.95;;;3.30;99.90;;;;;;5103250;27;20416;-78
2022/03/20 06:45:08;;;;;;;22.45;16.23;;;3.30;99.90;;;;;;5120756;27;20447;-78
2022/03/20 06:47:35;;;;;;;23.10;14.63;;;3.50;99.90;;;;;;5103274;27;20050;-78
2022/03/20 06:50:01;;;;;;;22.33;14.57;;;3.50;99.90;;;;;;5103628;27;20046;-78
2022/03/20 06:52:30;;;;;;;23.80;15.77;;;3.60;99.90;;;;;;5119180;27;20447;-78
2022/03/20 06:55:01;;;;;;;23.63;14.52;;;3.70;99.90;;;;;;5103799;27;20053;-78
2022/03/20 06:57:28;;;;;;;24.65;15.23;;;3.80;99.10;;;;;;5085962;27;20117;-78
2022/03/20 06:59:55;;;;;;;22.55;15.10;;;3.80;99.10;;;;;;5120311;27;20424;-78
2022/03/20 07:02:21;;;;;;;22.75;15.77;;;4.00;97.60;;;;;;5118539;27;20097;-78
2022/03/20 07:04:48;;;;;;;22.02;15.32;;;3.90;98.20;;;;;;5102158;27;20031;-78
2022/03/20 07:07:23;;;;;;;20.42;12.43;;;4.10;98.80;;;;;;5118219;27;20546;-78
2022/03/20 07:09:49;;;;;;;21.08;15.82;;;4.20;97.50;;;;;;5119988;27;20043;-78
2022/03/20 07:12:15;;;;;;;21.90;15.00;;;4.30;97.40;;;;;;5119422;27;20043;-78
2022/03/20 07:14:44;;;;;;;21.65;14.48;;;4.40;97.20;;;;;;5085594;27;20176;-78
2022/03/20 07:17:13;;;;;;;23.83;15.50;;;4.50;96.10;;;;;;5103195;27;20068;-78
2022/03/20 07:19:42;;;;;;;23.92;15.85;;;4.40;95.50;;;;;;5119599;27;20027;-78
2022/03/20 07:22:09;;;;;;;27.67;14.75;;;4.50;95.50;;;;;;5101594;27;20047;-78
2022/03/20 07:24:40;;;;;;;22.80;14.73;;;4.50;96.00;;;;;;5119633;27;20120;-78
2022/03/20 07:29:51;;;;;;;21.35;14.90;;;4.60;95.80;;;;;;5104914;27;20047;-78
2022/03/20 07:32:17;;;;;;;20.40;11.90;;;4.70;94.60;;;;;;5101878;27;20459;-78
2022/03/20 07:34:46;;;;;;;18.20;11.57;;;4.70;92.70;;;;;;5101884;27;20069;-78
2022/03/20 07:37:16;;;;;;;22.92;15.93;;;4.70;93.80;;;;;;5120084;27;20060;-78
2022/03/20 07:39:51;;;;;;;22.65;14.95;;;4.90;92.50;;;;;;5136446;27;20103;-79
2022/03/20 07:42:18;;;;;;;19.80;15.05;;;4.90;91.20;;;;;;5117085;27;20039;-78
2022/03/20 07:44:45;;;;;;;23.00;15.00;;;5.00;91.20;;;;;;5117379;27;20039;-78
2022/03/20 07:47:22;;;;;;;22.25;15.32;;;5.00;90.30;;;;;;5122627;27;20046;-78
2022/03/20 07:49:49;;;;;;;21.30;13.77;;;5.00;90.70;;;;;;5115072;27;20509;-78
2022/03/20 07:52:15;;;;;;;22.88;14.10;;;5.10;89.10;;;;;;5120483;27;20092;-78
2022/03/20 07:54:42;;;;;;;20.63;15.30;;;5.20;90.10;;;;;;5113257;27;20027;-78
2022/03/20 07:57:08;;;;;;;20.90;14.05;;;5.30;89.00;;;;;;5113415;27;20039;-78
2022/03/20 07:59:34;;;;;;;19.25;12.63;;;5.50;86.20;;;;;;5108427;27;20481;-78
2022/03/20 08:02:01;;;;;;;18.35;11.77;;;5.50;85.90;;;;;;5099720;28;20113;-79
2022/03/20 08:04:27;;;;;;;24.02;15.25;;;5.50;84.30;;;;;;5100564;28;20057;-79
2022/03/20 08:06:52;;;;;;;20.02;14.02;;;5.60;85.70;;;;;;5101209;27;20478;-79
2022/03/20 08:09:18;;;;;;;21.23;14.43;;;5.70;82.20;;;;;;5115454;28;20503;-79
2022/03/20 08:11:45;;;;;;;21.95;13.32;;;5.80;84.10;;;;;;5083124;28;20035;-78
2022/03/20 08:14:10;;;;;;;21.13;14.65;;;5.80;78.30;;;;;;5117005;27;20086;-78
2022/03/20 08:16:38;;;;;;;15.30;9.73;;;5.70;81.70;;;;;;5103195;27;20455;-78
2022/03/20 08:19:05;;;;;;;23.45;16.50;;;5.90;76.30;;;;;;5103288;27;20078;-78
2022/03/20 08:21:33;;;;;;;22.42;15.98;;;6.00;81.80;;;;;;5101891;27;20043;-78
2022/03/20 08:24:02;;;;;;;24.75;16.48;;;6.10;79.20;;;;;;5121469;27;20043;-78
2022/03/20 08:26:30;;;;;;;22.55;15.70;;;6.10;79.20;;;;;;5112897;27;20086;-78
2022/03/20 08:28:55;;;;;;;23.27;15.90;;;6.00;78.40;;;;;;5097166;27;20042;-78
2022/03/20 08:31:21;;;;;;;24.17;16.50;;;6.20;73.40;;;;;;5114382;27;20163;-78
2022/03/20 08:33:47;;;;;;;23.10;15.23;;;6.10;74.40;;;;;;5115525;27;20035;-78
2022/03/20 08:36:14;;;;;;;17.45;9.00;;;6.20;75.40;;;;;;5127729;27;20031;-78
2022/03/20 08:38:39;;;;;;;15.55;8.40;;;6.50;71.90;;;;;;5125621;27;20073;-78
2022/03/20 08:41:05;;;;;;;22.58;15.63;;;6.40;69.90;;;;;;5116691;27;20066;-78
2022/03/20 08:43:31;;;;;;;22.98;12.50;;;6.50;70.80;;;;;;5123822;27;20054;-78
2022/03/20 08:45:56;;;;;;;21.15;13.65;;;6.60;69.70;;;;;;5114392;27;20083;-78
2022/03/20 08:48:22;;;;;;;19.75;11.85;;;6.70;69.60;;;;;;5109147;27;20160;-78
2022/03/20 08:50:50;;;;;;;25.45;15.60;;;6.80;68.50;;;;;;5128323;27;20056;-79
2022/03/20 08:53:20;;;;;;;20.13;13.27;;;6.90;69.50;;;;;;5106450;27;20061;-78
2022/03/20 08:55:47;;;;;;;22.23;16.38;;;6.80;65.80;;;;;;5108390;27;20042;-78
2022/03/20 08:58:14;;;;;;;21.88;13.57;;;7.00;65.80;;;;;;5103741;27;20045;-78
2022/03/20 09:00:41;;;;;;;15.30;8.75;;;7.00;67.90;;;;;;5128133;27;20027;-78
2022/03/20 09:03:07;;;;;;;16.40;9.05;;;7.20;63.20;;;;;;5108331;27;20117;-78
2022/03/20 09:05:33;;;;;;;20.08;13.48;;;7.20;64.80;;;;;;5099476;27;20039;-78
2022/03/20 09:07:59;;;;;;;19.92;14.48;;;7.30;64.10;;;;;;5122035;27;20046;-78
2022/03/20 09:10:26;;;;;;;22.27;16.23;;;7.50;64.90;;;;;;5109536;27;20042;-78
2022/03/20 09:12:57;;;;;;;14.68;7.85;;;7.60;66.30;;;;;;5109909;27;20042;-78
2022/03/20 09:15:25;;;;;;;20.42;10.07;;;7.60;59.40;;;;;;5110658;27;20387;-78
2022/03/20 09:20:37;;;;;;;25.45;12.23;;;7.70;64.00;;;;;;5118989;27;20039;-78
2022/03/20 09:23:04;;;;;;;20.25;12.48;;;7.90;61.30;;;;;;5106769;27;20078;-78
2022/03/20 09:25:30;;;;;;;18.63;11.15;;;7.90;62.30;;;;;;5121893;27;20512;-78
2022/03/20 09:27:56;;;;;;;21.88;13.38;;;8.10;61.70;;;;;;5085625;27;20050;-78
2022/03/20 09:30:22;;;;;;;14.57;8.10;;;8.10;61.90;;;;;;5085825;27;20427;-78
2022/03/20 09:32:49;;;;;;;18.05;10.70;;;8.10;58.40;;;;;;5085341;27;20035;-79
2022/03/20 09:35:15;;;;;;;21.50;14.48;;;8.10;58.20;;;;;;5121393;27;20042;-79
2022/03/20 09:37:41;;;;;;;21.85;11.15;;;8.10;59.80;;;;;;5105624;27;20031;-79
2022/03/20 09:40:09;;;;;;;21.27;13.25;;;8.20;58.60;;;;;;5105673;27;20057;-79
2022/03/20 09:42:36;;;;;;;23.65;16.15;;;8.20;59.00;;;;;;5092046;27;20047;-79
2022/03/20 09:45:03;;;;;;;19.92;11.68;;;8.40;58.60;;;;;;5132540;27;20095;-79
2022/03/20 09:47:29;;;;;;;23.05;14.00;;;8.50;57.40;;;;;;5125834;27;20038;-79
2022/03/20 09:49:58;;;;;;;19.17;10.52;;;8.60;57.50;;;;;;5108594;27;20102;-79
2022/03/20 09:52:25;;;;;;;22.20;12.15;;;8.60;57.40;;;;;;5090876;27;20608;-79
2022/03/20 09:54:51;;;;;;;21.90;16.67;;;8.70;56.60;;;;;;5124434;27;20030;-79
2022/03/20 09:57:17;;;;;;;24.77;16.40;;;8.80;56.30;;;;;;5107850;27;20122;-79
2022/03/20 09:59:43;;;;;;;22.90;14.10;;;8.80;56.90;;;;;;5142344;27;20122;-79
2022/03/20 10:02:11;;;;;;;20.05;10.70;;;9.00;56.90;;;;;;5119485;27;20502;-79
2022/03/20 10:05:01;;;;;;;25.98;16.30;;;9.10;56.00;;;;;;5127224;27;20038;-79
2022/03/20 10:07:40;;;;;;;18.52;10.80;;;9.20;55.40;;;;;;5119670;27;20435;-79
2022/03/20 10:10:16;;;;;;;17.15;10.82;;;9.30;55.20;;;;;;5145384;27;20087;-79
2022/03/20 10:12:53;;;;;;;24.25;15.95;;;9.50;54.20;;;;;;5145511;27;20542;-79
2022/03/20 10:15:28;;;;;;;21.45;12.82;;;9.50;56.60;;;;;;5127091;27;20047;-79
2022/03/20 10:18:14;;;;;;;27.33;16.50;;;9.60;53.40;;;;;;5133586;27;20039;-79
2022/03/20 10:20:44;;;;;;;24.10;12.30;;;9.70;53.70;;;;;;5120834;27;20030;-79
2022/03/20 10:23:29;;;;;;;19.95;11.88;;;9.70;52.60;;;;;;5145551;27;20039;-79
2022/03/20 10:25:55;;;;;;;16.63;7.95;;;9.60;53.00;;;;;;5145938;27;20047;-79
2022/03/20 10:28:21;;;;;;;22.95;15.80;;;9.60;52.20;;;;;;5123965;27;20050;-79
2022/03/20 10:30:57;;;;;;;25.50;17.45;;;9.70;53.00;;;;;;5106843;27;20035;-79
2022/03/20 10:33:23;;;;;;;22.40;11.80;;;9.70;54.20;;;;;;5116104;27;20039;-79
2022/03/20 10:36:27;;;;;;;26.40;17.65;;;9.90;52.90;;;;;;5126833;27;20041;-79
2022/03/20 10:38:53;;;;;;;20.98;13.30;;;9.90;53.40;;;;;;5025457;28;20068;-79
2022/03/20 10:41:20;;;;;;;24.77;11.13;;;10.00;53.90;;;;;;5008548;28;20045;-79
2022/03/20 10:43:48;;;;;;;18.75;13.43;;;10.10;52.50;;;;;;5092660;27;20042;-79
2022/03/20 10:46:22;;;;;;;17.08;8.95;;;10.00;51.60;;;;;;5110719;27;20382;-79
2022/03/20 10:48:56;;;;;;;20.75;8.90;;;10.10;51.10;;;;;;5125919;27;20034;-78
2022/03/20 10:51:40;;;;;;;20.23;11.70;;;10.10;50.50;;;;;;5127210;27;20038;-79
2022/03/20 10:54:15;;;;;;;22.33;13.93;;;10.00;50.40;;;;;;5142848;27;20039;-79
2022/03/20 10:56:59;;;;;;;19.52;12.32;;;10.00;50.90;;;;;;5125485;27;20058;-79
2022/03/20 10:59:26;;;;;;;25.13;17.48;;;10.10;51.80;;;;;;5107989;27;20026;-79
2022/03/20 11:01:53;;;;;;;19.50;12.45;;;10.20;52.60;;;;;;5109026;27;20073;-79
2022/03/20 11:04:20;;;;;;;22.20;14.88;;;10.40;51.30;;;;;;5100710;27;20042;-80
2022/03/20 11:06:48;;;;;;;20.33;11.35;;;10.40;53.50;;;;;;5116591;27;20043;-80
2022/03/20 11:09:15;;;;;;;27.35;16.08;;;10.60;50.40;;;;;;5116654;27;20050;-80
2022/03/20 11:11:47;;;;;;;19.75;12.07;;;10.50;50.50;;;;;;5099522;27;20039;-80
2022/03/20 11:14:19;;;;;;;20.05;13.40;;;10.50;50.40;;;;;;5116283;27;20054;-80
2022/03/20 11:17:00;;;;;;;18.63;10.80;;;10.50;49.30;;;;;;5099562;27;20039;-80
2022/03/20 11:19:29;;;;;;;21.80;12.05;;;10.40;50.50;;;;;;5116921;27;20039;-80
2022/03/20 11:22:10;;;;;;;24.02;16.58;;;10.40;49.90;;;;;;5116584;27;20039;-80
2022/03/20 11:24:36;;;;;;;17.20;8.73;;;10.50;50.10;;;;;;5100179;27;20039;-80
2022/03/20 11:27:04;;;;;;;20.90;12.65;;;10.40;50.00;;;;;;5116959;27;20446;-80
2022/03/20 11:29:39;;;;;;;20.63;12.27;;;10.40;51.00;;;;;;5066289;27;20130;-80
2022/03/20 11:32:08;;;;;;;22.48;12.23;;;10.50;50.50;;;;;;5099689;27;20517;-80
2022/03/20 11:34:35;;;;;;;17.20;9.93;;;10.50;49.50;;;;;;5099756;27;20114;-80
2022/03/20 11:37:06;;;;;;;21.90;11.45;;;10.60;49.90;;;;;;5115297;27;20490;-80
2022/03/20 11:39:34;;;;;;;20.02;12.43;;;10.70;49.40;;;;;;5117878;27;20042;-80
2022/03/20 11:42:24;;;;;;;17.52;9.40;;;10.70;50.10;;;;;;5117214;27;20031;-81
2022/03/20 11:44:59;;;;;;;16.45;9.32;;;10.80;49.70;;;;;;5116159;27;20417;-80
2022/03/20 11:47:29;;;;;;;19.15;12.20;;;10.90;51.00;;;;;;5114407;27;20053;-80
2022/03/20 11:50:25;;;;;;;20.83;12.50;;;10.90;50.00;;;;;;5098570;28;20435;-79
2022/03/20 11:52:55;;;;;;;22.67;12.82;;;10.90;50.50;;;;;;5097106;28;20063;-79
2022/03/20 11:55:33;;;;;;;19.95;8.43;;;11.00;49.90;;;;;;5099555;28;20083;-80
2022/03/20 11:58:05;;;;;;;19.10;11.98;;;11.00;48.90;;;;;;5098866;28;20031;-80
2022/03/20 12:00:32;;;;;;;;;;;11.00;49.80;;;;;;5116583;28;20114;-80
2022/03/20 12:03:10;;;;;;;20.90;12.98;;;11.00;48.90;;;;;;5099223;28;19919;-80
2022/03/20 12:05:54;;;;;;;19.20;9.25;;;11.00;50.00;;;;;;5099957;28;20071;-80
2022/03/20 12:08:55;;;;;;;14.07;8.43;;;11.10;49.10;;;;;;5115346;28;20122;-80
2022/03/20 12:11:29;;;;;;;20.25;10.80;;;11.00;49.40;;;;;;5098545;28;20039;-79
2022/03/20 12:14:15;;;;;;;21.63;11.88;;;10.90;49.40;;;;;;5115848;28;20035;-79
2022/03/20 12:16:45;;;;;;;17.35;9.75;;;11.00;49.20;;;;;;5115588;28;20079;-79
2022/03/20 12:19:12;;;;;;;21.55;11.35;;;11.20;49.30;;;;;;5098820;28;20371;-79
2022/03/20 12:22:10;;;;;;;18.25;10.48;;;11.40;49.40;;;;;;5115186;28;20126;-80
2022/03/20 12:24:36;;;;;;;17.08;8.63;;;11.50;48.10;;;;;;5119992;28;20464;-78
2022/03/20 12:30:13;;;;;;;19.08;10.32;;;11.20;48.70;;;;;;5127548;28;20125;-79
2022/03/20 12:32:48;;;;;;;18.65;11.93;;;11.10;48.80;;;;;;5116739;28;20050;-79
2022/03/20 12:35:14;;;;;;;20.23;12.52;;;11.10;49.40;;;;;;5124893;28;20400;-79
2022/03/20 12:37:42;;;;;;;17.48;9.63;;;11.00;49.20;;;;;;5113877;27;20047;-79
2022/03/20 12:40:19;;;;;;;23.58;15.05;;;10.90;49.90;;;;;;5106851;27;20039;-79
2022/03/20 12:42:58;;;;;;;22.40;11.10;;;11.00;50.20;;;;;;5136094;28;20027;-79
2022/03/20 12:45:26;;;;;;;22.50;12.77;;;11.00;49.70;;;;;;5103412;27;20092;-79
2022/03/20 12:47:54;;;;;;;14.30;8.48;;;11.10;50.50;;;;;;5106710;28;20043;-79
2022/03/20 12:50:32;;;;;;;22.20;13.05;;;11.30;49.30;;;;;;5123254;27;20118;-79
2022/03/20 12:53:18;;;;;;;16.15;8.50;;;11.50;51.20;;;;;;5126827;28;20070;-79
2022/03/20 12:55:49;;;;;;;13.88;7.85;;;11.80;48.10;;;;;;5128125;27;20035;-78
2022/03/20 12:58:18;;;;;;;24.60;16.00;;;11.80;48.60;;;;;;5114075;27;20027;-78
2022/03/20 13:00:44;;;;;;;19.85;10.68;;;11.70;49.70;;;;;;5122679;27;20035;-78
2022/03/20 13:03:12;;;;;;;23.88;11.20;;;11.60;49.10;;;;;;5148717;27;20070;-79
2022/03/20 13:05:38;;;;;;;19.88;10.57;;;11.60;50.00;;;;;;5153962;27;20034;-79
2022/03/20 13:08:09;;;;;;;22.60;14.20;;;11.70;49.50;;;;;;5137672;27;20038;-79
2022/03/20 13:10:37;;;;;;;17.17;9.50;;;11.80;49.00;;;;;;5135735;27;20046;-79
2022/03/20 13:13:05;;;;;;;23.98;15.80;;;12.00;49.00;;;;;;5134735;27;20044;-79
2022/03/20 13:15:37;;;;;;;17.70;10.77;;;12.00;48.00;;;;;;5116051;28;20093;-79
2022/03/20 13:18:04;;;;;;;26.98;19.13;;;11.90;48.20;;;;;;5113074;28;20159;-79